UGSB/BUS METAR and TAF weather

Enter ICAO airport designator
Station Type Date Time Source
UGSB METAR 2019/12/06 09:00 UTC NOAA

UGSB 060900Z 11008KT CAVOK 10/M00 Q1029 NOSIG


Station Type Date Time Source
UGSB Decoded METAR 2019/12/06 09:00 UTC NOAA

Station name not available
Dec 06, 2019 - 04:00 AM EST / 2019.12.06 0900 UTC
Wind: from the ESE (110 degrees) at 9 MPH (8 KT):0
Visibility: greater than 7 mile(s):0
Temperature: 50 F (10 C)
Dew Point: 32 F (0 C)
Relative Humidity: 49%
Pressure (altimeter): 30.39 in. Hg (1029 hPa)
ob: UGSB 060900Z 11008KT CAVOK 10/M00 Q1029 NOSIG
cycle: 9

Station Type Date Time Source
UGSB TAF 2019/12/06 06:03 UTC NOAA

TAF UGSB 060500Z 0606/0706 13017KT 9999 FEW030 TX12/0611Z TN05/0701Z
BECMG 0608/0610 27007KT
BECMG 0614/0617 13012KT

Example: see airport list